Time;durP1;ratioP1;P1;durP2;ratioP2;P2;SDS_P1;SDS_P2;PMS_P1;PMS_P2;Temp;Humidity;BMP_temperature;BMP_pressure;BME280_temperature;BME280_humidity;BME280_pressure;Samples;Min_cycle;Max_cycle;Signal;HPM_P1;HPM_P2
2020/12/31 00:00:25;;;;;;;18.85;7.20;;;;;;;13.19;65.21;101351.33;1760371;81;21160;-48
2020/12/31 00:02:53;;;;;;;18.17;7.12;;;;;;;13.37;64.66;101346.97;1769968;81;21574;-49
2020/12/31 00:05:21;;;;;;;21.12;6.80;;;;;;;13.45;64.33;101351.56;1755979;81;21322;-47
2020/12/31 00:07:49;;;;;;;22.02;7.17;;;;;;;13.44;64.20;101353.31;1773825;81;21278;-47
2020/12/31 00:10:18;;;;;;;18.27;6.62;;;;;;;13.44;64.23;101349.83;1761067;80;21183;-48
2020/12/31 00:12:46;;;;;;;22.13;7.25;;;;;;;13.43;64.35;101345.52;1752204;80;21184;-47
2020/12/31 00:15:15;;;;;;;15.53;6.25;;;;;;;13.43;64.40;101345.52;1763735;81;21129;-48
2020/12/31 00:17:43;;;;;;;27.02;6.90;;;;;;;13.44;64.41;101349.83;1711515;84;21144;-49
2020/12/31 00:20:11;;;;;;;22.52;6.75;;;;;;;13.45;64.40;101346.34;1747814;81;21290;-48
2020/12/31 00:22:39;;;;;;;20.10;6.58;;;;;;;13.46;64.41;101349.34;1764694;81;21204;-47
2020/12/31 00:25:09;;;;;;;21.48;7.12;;;;;;;13.39;64.49;101351.72;1769745;81;21141;-47
2020/12/31 00:27:37;;;;;;;18.07;6.75;;;;;;;13.16;65.28;101352.69;1758502;81;21282;-47
2020/12/31 00:30:16;;;;;;;19.90;6.53;;;;;;;13.12;65.82;101351.04;1775930;81;21196;-47
2020/12/31 00:32:40;;;;;;;21.62;7.67;;;;;;;13.11;66.12;101348.03;1663043;85;21213;-47
2020/12/31 00:35:08;;;;;;;18.42;6.72;;;;;;;13.10;66.34;101351.52;1669348;85;21338;-47
2020/12/31 00:37:37;;;;;;;17.50;6.00;;;;;;;13.10;66.37;101351.52;1669372;85;21306;-47
2020/12/31 00:40:06;;;;;;;17.90;6.58;;;;;;;13.13;66.44;101346.24;1635884;87;21194;-47
2020/12/31 00:42:34;;;;;;;22.17;7.70;;;;;;;13.15;66.43;101344.45;1607972;88;21194;-48
2020/12/31 00:45:02;;;;;;;20.40;7.37;;;;;;;13.16;66.27;101341.80;1624357;88;21649;-48
2020/12/31 00:47:30;;;;;;;15.48;5.97;;;;;;;13.16;66.15;101340.49;1621466;88;21411;-47
2020/12/31 00:49:58;;;;;;;19.27;6.65;;;;;;;13.17;66.02;101342.66;1624265;88;21210;-47
2020/12/31 00:52:26;;;;;;;15.13;6.22;;;;;;;13.17;65.85;101343.97;1621383;88;21210;-48
2020/12/31 00:54:54;;;;;;;14.40;6.00;;;;;;;13.15;65.87;101352.30;1636038;88;21170;-48
2020/12/31 00:57:23;;;;;;;20.52;7.30;;;;;;;13.11;65.84;101348.03;1620734;88;21226;-47
2020/12/31 00:59:52;;;;;;;20.17;6.55;;;;;;;13.08;65.88;101350.70;1620424;88;21174;-47
2020/12/31 01:02:20;;;;;;;20.55;7.08;;;;;;;13.04;65.95;101354.67;1620894;88;21234;-48
2020/12/31 01:04:48;;;;;;;17.10;6.65;;;;;;;12.99;66.06;101348.67;1612335;88;21381;-48
2020/12/31 01:07:17;;;;;;;18.35;6.17;;;;;;;12.96;66.21;101357.03;1623378;88;21210;-47
2020/12/31 01:09:45;;;;;;;15.90;5.45;;;;;;;12.93;66.31;101347.50;1623283;88;21217;-48
2020/12/31 01:12:13;;;;;;;19.50;7.25;;;;;;;12.93;66.38;101355.34;1623646;88;21379;-47
2020/12/31 01:14:41;;;;;;;21.48;7.72;;;;;;;12.95;66.35;101356.16;1622738;88;21383;-47
2020/12/31 01:17:11;;;;;;;15.43;6.50;;;;;;;12.94;66.45;101353.13;1622174;88;21178;-47
2020/12/31 01:19:39;;;;;;;18.62;6.50;;;;;;;12.94;66.65;101357.04;1624809;88;21618;-47
2020/12/31 01:22:08;;;;;;;18.07;6.12;;;;;;;12.94;66.79;101351.81;1651078;83;21608;-48
2020/12/31 01:24:36;;;;;;;17.82;5.72;;;;;;;12.92;66.94;101350.99;1722204;83;21604;-47
2020/12/31 01:27:04;;;;;;;24.82;7.50;;;;;;;12.91;67.02;101344.06;1713587;83;21302;-48
2020/12/31 01:29:33;;;;;;;28.83;7.33;;;;;;;12.92;67.14;101348.38;1729122;83;21156;-47
2020/12/31 01:32:01;;;;;;;14.33;6.00;;;;;;;12.91;67.13;101347.98;1720683;83;21136;-48
2020/12/31 01:34:30;;;;;;;12.98;6.60;;;;;;;12.94;67.07;101345.77;1715794;83;21176;-47
2020/12/31 01:36:58;;;;;;;14.68;6.10;;;;;;;12.95;66.87;101335.27;1775831;81;21290;-48
2020/12/31 01:39:26;;;;;;;17.62;6.30;;;;;;;12.97;66.83;101340.02;1769007;80;21139;-48
2020/12/31 01:41:57;;;;;;;13.78;6.05;;;;;;;12.97;66.68;101338.70;1711430;84;21188;-47
2020/12/31 01:44:25;;;;;;;13.70;6.15;;;;;;;12.96;66.66;101334.83;1755600;81;21152;-47
2020/12/31 01:46:53;;;;;;;18.95;6.47;;;;;;;12.94;66.78;101334.84;1768087;81;21144;-48
2020/12/31 01:49:21;;;;;;;16.75;6.30;;;;;;;12.91;66.87;101332.75;1733119;81;21139;-48
2020/12/31 01:51:50;;;;;;;19.02;6.20;;;;;;;12.88;66.95;101327.14;1767119;81;21160;-47
2020/12/31 01:54:18;;;;;;;17.87;6.75;;;;;;;12.87;66.97;101326.74;1711114;84;21149;-47
2020/12/31 01:56:48;;;;;;;16.25;6.17;;;;;;;12.85;67.04;101328.53;1769667;81;21283;-48
2020/12/31 01:59:16;;;;;;;23.77;7.08;;;;;;;12.87;66.92;101331.97;1757438;81;21121;-48
2020/12/31 02:01:47;;;;;;;20.72;6.22;;;;;;;12.88;66.77;101320.61;1711310;84;21606;-48
2020/12/31 02:04:15;;;;;;;21.33;7.00;;;;;;;12.89;66.71;101321.04;1768659;80;21187;-48
2020/12/31 02:06:44;;;;;;;22.80;7.03;;;;;;;12.89;66.70;101317.56;1759210;81;21137;-47
2020/12/31 02:09:12;;;;;;;15.25;5.53;;;;;;;12.85;66.65;101308.95;1758310;81;21164;-47
2020/12/31 02:11:40;;;;;;;18.92;6.22;;;;;;;12.85;66.64;101308.95;1711447;84;21342;-47
2020/12/31 02:14:08;;;;;;;13.43;5.55;;;;;;;12.85;66.69;101305.03;1766692;81;21124;-47
2020/12/31 02:16:39;;;;;;;17.30;6.53;;;;;;;12.86;66.69;101302.81;1778667;81;21147;-48
2020/12/31 02:19:12;;;;;;;19.70;6.80;;;;;;;12.87;66.69;101308.46;1672540;85;21161;-48
2020/12/31 02:21:47;;;;;;;22.95;6.80;;;;;;;12.88;66.61;101307.55;1668125;85;21256;-47
2020/12/31 02:24:15;;;;;;;20.25;6.08;;;;;;;12.87;66.53;101305.84;1655865;85;21581;-47
2020/12/31 02:26:45;;;;;;;17.12;5.33;;;;;;;12.87;66.41;101312.82;1666634;85;21668;-48
2020/12/31 02:29:14;;;;;;;18.23;6.20;;;;;;;12.84;66.35;101305.03;1667401;85;21204;-47
2020/12/31 02:31:42;;;;;;;21.10;6.45;;;;;;;12.82;66.27;101306.39;1669493;85;21137;-47
2020/12/31 02:34:10;;;;;;;18.37;6.12;;;;;;;12.94;65.90;101294.35;1667424;85;21189;-47
2020/12/31 02:36:39;;;;;;;20.72;7.10;;;;;;;13.11;65.33;101295.77;1669489;85;21322;-48
2020/12/31 02:39:09;;;;;;;20.02;6.45;;;;;;;13.14;65.40;101299.16;1665944;85;21269;-47
2020/12/31 02:41:38;;;;;;;18.23;6.83;;;;;;;13.15;65.54;101288.27;1666504;85;21189;-48
2020/12/31 02:44:06;;;;;;;19.17;7.12;;;;;;;13.16;65.61;101289.98;1668282;84;21623;-48
2020/12/31 02:46:34;;;;;;;23.25;7.12;;;;;;;13.16;65.73;101288.23;1669183;85;21625;-48
2020/12/31 02:49:02;;;;;;;19.07;6.33;;;;;;;13.16;65.82;101293.89;1637147;87;21667;-48
2020/12/31 02:51:31;;;;;;;19.23;6.72;;;;;;;13.15;65.71;101286.97;1673161;85;21178;-47
2020/12/31 02:53:59;;;;;;;19.23;6.75;;;;;;;13.18;65.59;101293.41;1676355;85;21325;-47
2020/12/31 02:56:27;;;;;;;19.05;5.70;;;;;;;13.19;65.51;101289.92;1680912;85;21330;-47
2020/12/31 02:58:56;;;;;;;20.45;6.67;;;;;;;13.18;65.51;101296.02;1677759;85;21604;-47
2020/12/31 03:01:24;;;;;;;17.60;6.50;;;;;;;13.20;65.42;101292.92;1676834;85;21177;-48
2020/12/31 03:03:52;;;;;;;21.90;6.12;;;;;;;13.20;65.36;101287.70;1676284;85;21249;-48
2020/12/31 03:06:20;;;;;;;22.35;6.90;;;;;;;13.21;65.37;101286.82;1674342;85;21589;-49
2020/12/31 03:08:48;;;;;;;15.40;5.90;;;;;;;13.21;65.45;101289.44;1699956;80;21277;-47
2020/12/31 03:11:23;;;;;;;22.67;6.37;;;;;;;13.19;65.45;101286.00;1772117;80;21592;-48
2020/12/31 03:13:51;;;;;;;17.98;6.78;;;;;;;13.18;65.40;101284.27;1715564;83;21190;-47
2020/12/31 03:16:20;;;;;;;25.70;8.30;;;;;;;13.18;65.27;101282.95;1724996;83;21171;-47
2020/12/31 03:18:48;;;;;;;20.27;7.67;;;;;;;13.19;65.26;101284.69;1723037;83;21182;-47
2020/12/31 03:21:16;;;;;;;20.82;7.60;;;;;;;13.20;65.22;101279.86;1724911;83;21147;-47
2020/12/31 03:23:44;;;;;;;21.82;7.60;;;;;;;13.20;65.08;101281.16;1724989;83;21210;-49
2020/12/31 03:26:12;;;;;;;18.15;6.33;;;;;;;13.19;65.03;101280.77;1725131;83;21163;-47
2020/12/31 03:28:40;;;;;;;25.25;7.83;;;;;;;13.19;65.00;101278.16;1725006;82;21304;-46
2020/12/31 03:31:09;;;;;;;26.12;7.50;;;;;;;13.64;63.50;101277.02;1725118;83;21198;-46
2020/12/31 03:33:37;;;;;;;22.05;6.80;;;;;;;13.28;64.45;101276.17;1724518;83;21203;-47
2020/12/31 03:36:05;;;;;;;19.60;7.83;;;;;;;13.54;63.77;101281.59;1724893;83;21136;-46
2020/12/31 03:38:33;;;;;;;20.02;7.33;;;;;;;13.64;63.46;101279.16;1724794;83;21198;-47
2020/12/31 03:41:02;;;;;;;21.77;7.78;;;;;;;13.48;63.57;101280.45;1724873;83;21147;-47
2020/12/31 03:43:30;;;;;;;17.73;7.58;;;;;;;13.25;64.28;101283.23;1724863;83;21158;-46
2020/12/31 03:45:58;;;;;;;22.20;6.78;;;;;;;13.18;64.50;101285.57;1724946;83;21198;-46
2020/12/31 03:48:26;;;;;;;17.82;6.80;;;;;;;13.54;63.67;101283.38;1724896;83;21119;-48
2020/12/31 03:50:54;;;;;;;21.95;7.37;;;;;;;13.51;63.68;101280.83;1725021;82;21356;-47
2020/12/31 03:53:22;;;;;;;22.40;6.90;;;;;;;12.85;65.79;101281.52;1724952;83;21311;-47
2020/12/31 03:55:51;;;;;;;19.48;7.30;;;;;;;12.80;66.14;101283.80;1724987;83;21131;-47
2020/12/31 03:58:19;;;;;;;19.32;7.40;;;;;;;12.78;66.23;101284.28;1724856;83;21300;-46
2020/12/31 04:00:47;;;;;;;18.30;6.05;;;;;;;12.77;66.20;101288.67;1724934;83;21566;-47
2020/12/31 04:03:17;;;;;;;18.60;6.08;;;;;;;12.71;66.29;101287.50;1724872;83;21211;-47
2020/12/31 04:05:45;;;;;;;21.62;7.45;;;;;;;12.66;66.43;101285.42;1724814;83;21306;-47
2020/12/31 04:08:12;;;;;;;15.10;6.20;;;;;;;12.63;66.69;101281.56;1725159;83;21174;-48
2020/12/31 04:10:40;;;;;;;14.65;5.95;;;;;;;12.60;66.92;101285.56;1753976;80;21172;-47
2020/12/31 04:13:09;;;;;;;18.48;6.50;;;;;;;12.61;66.94;101287.26;1774357;80;21345;-47
2020/12/31 04:15:37;;;;;;;16.90;6.67;;;;;;;12.66;66.85;101297.17;1775804;80;21152;-47
2020/12/31 04:18:06;;;;;;;21.80;6.72;;;;;;;12.65;66.78;101286.30;1773329;80;21313;-47
2020/12/31 04:20:35;;;;;;;21.97;7.20;;;;;;;12.63;66.87;101286.78;1760532;80;21155;-47
2020/12/31 04:23:03;;;;;;;18.42;6.12;;;;;;;12.63;66.88;101285.47;1780563;80;21546;-47
2020/12/31 04:25:32;;;;;;;16.37;5.65;;;;;;;12.95;65.92;101286.08;1778094;80;21192;-47
2020/12/31 04:28:00;;;;;;;19.92;7.12;;;;;;;13.05;65.64;101287.17;1777943;80;21144;-47
2020/12/31 04:30:28;;;;;;;21.17;6.53;;;;;;;13.08;65.62;101293.61;1778390;80;21279;-47
2020/12/31 04:32:56;;;;;;;27.82;9.15;;;;;;;13.08;65.61;101296.23;1719037;83;21165;-47
2020/12/31 04:35:24;;;;;;;18.98;6.05;;;;;;;13.13;65.41;101301.83;1771382;80;21137;-47
2020/12/31 04:37:53;;;;;;;20.02;6.55;;;;;;;13.13;65.37;101296.59;1772548;80;21168;-47
2020/12/31 04:40:22;;;;;;;16.60;5.83;;;;;;;13.13;65.38;101297.91;1771571;80;21159;-47
2020/12/31 04:42:52;;;;;;;18.85;5.30;;;;;;;13.14;65.31;101297.86;1719085;83;21136;-47
2020/12/31 04:45:20;;;;;;;24.12;7.42;;;;;;;13.17;65.15;101287.79;1773034;80;21584;-47
2020/12/31 04:47:54;;;;;;;20.30;6.65;;;;;;;13.18;64.98;101290.80;1781169;80;21152;-46
2020/12/31 04:50:32;;;;;;;25.57;7.55;;;;;;;13.21;65.10;101289.44;1819756;79;23130;-47
2020/12/31 04:53:05;;;;;;;21.75;6.25;;;;;;;13.16;65.21;101291.28;1781296;80;21156;-47
2020/12/31 04:55:45;;;;;;;19.32;5.90;;;;;;;13.13;65.47;101291.37;1792941;80;21596;-47
2020/12/31 04:58:14;;;;;;;17.45;5.97;;;;;;;13.10;65.69;101291.43;1791499;80;21178;-48
2020/12/31 05:00:43;;;;;;;18.32;6.03;;;;;;;13.07;65.86;101294.97;1793013;80;21144;-47
2020/12/31 05:03:11;;;;;;;18.62;6.85;;;;;;;13.06;65.91;101296.71;1772917;80;21112;-47
2020/12/31 05:05:40;;;;;;;20.88;6.78;;;;;;;13.08;65.93;101291.91;1792975;80;21313;-47
2020/12/31 05:08:08;;;;;;;24.47;6.67;;;;;;;13.10;65.94;101291.43;1754196;81;21203;-47
2020/12/31 05:10:36;;;;;;;18.25;6.15;;;;;;;13.13;65.86;101291.37;1737129;82;21165;-47
2020/12/31 05:13:07;;;;;;;22.48;6.05;;;;;;;13.15;65.69;101289.58;1696376;83;21287;-48
2020/12/31 05:15:37;;;;;;;;;;;;;;;13.18;65.55;101289.48;1740342;82;21140;-47
2020/12/31 05:18:28;;;;;;;24.95;6.40;;;;;;;13.17;65.38;101290.41;1742546;82;20124;-46
2020/12/31 05:20:58;;;;;;;20.88;6.85;;;;;;;13.15;65.24;101294.80;1719437;82;21165;-47
2020/12/31 05:23:27;;;;;;;19.87;6.55;;;;;;;13.10;65.20;101294.04;1729729;82;21167;-47
2020/12/31 05:25:57;;;;;;;24.15;6.25;;;;;;;13.03;65.34;101290.23;1742292;82;21118;-47
2020/12/31 05:28:33;;;;;;;17.00;7.97;;;;;;;12.99;65.44;101300.34;1742474;82;21147;-47
2020/12/31 05:31:11;;;;;;;16.57;5.58;;;;;;;13.00;65.54;101307.27;1672660;85;21241;-47
2020/12/31 05:33:41;;;;;;;18.23;5.67;;;;;;;13.00;65.64;101307.27;1633797;86;21170;-47
2020/12/31 05:36:19;;;;;;;22.70;6.47;;;;;;;12.99;65.82;101308.18;1653106;86;21188;-47
2020/12/31 05:39:05;;;;;;;22.32;6.55;;;;;;;12.95;66.18;101311.76;1652480;86;21327;-47
2020/12/31 05:41:39;;;;;;;20.75;5.70;;;;;;;13.01;66.25;101314.23;1770338;79;23089;-46
2020/12/31 05:44:08;;;;;;;17.40;6.08;;;;;;;12.94;66.38;101310.02;1732040;82;21164;-47
2020/12/31 05:46:38;;;;;;;16.42;5.58;;;;;;;12.99;66.21;101317.33;1743906;82;21132;-47
2020/12/31 05:49:11;;;;;;;20.23;6.53;;;;;;;13.00;66.09;101312.50;1734906;82;21285;-47
2020/12/31 05:51:40;;;;;;;22.13;7.05;;;;;;;12.99;66.07;101318.63;1740512;82;21156;-47
2020/12/31 05:54:15;;;;;;;22.05;5.83;;;;;;;12.99;66.27;101318.63;1733898;82;21156;-47
2020/12/31 05:56:44;;;;;;;22.25;7.22;;;;;;;13.03;66.54;101319.41;1732020;82;21322;-48
2020/12/31 05:59:24;;;;;;;18.37;6.62;;;;;;;13.06;66.55;101304.55;1741762;82;21148;-48
2020/12/31 06:02:02;;;;;;;19.48;5.97;;;;;;;13.12;66.49;101310.55;1734797;81;21322;-47
2020/12/31 06:04:46;;;;;;;19.15;5.65;;;;;;;13.12;66.50;101315.77;1739351;82;21200;-47
2020/12/31 06:07:32;;;;;;;20.55;5.92;;;;;;;13.14;66.35;101319.20;1741641;82;21274;-47
2020/12/31 06:10:05;;;;;;;16.25;6.35;;;;;;;13.15;66.21;101318.32;1733102;81;21148;-47
2020/12/31 06:12:39;;;;;;;14.98;5.62;;;;;;;13.16;66.04;101320.02;1741658;82;21175;-47
2020/12/31 06:15:15;;;;;;;21.25;5.83;;;;;;;13.20;65.89;101317.31;1771603;79;23359;-47
2020/12/31 06:17:46;;;;;;;16.70;6.40;;;;;;;13.17;65.65;101323.06;1731771;81;21117;-47
2020/12/31 06:20:15;;;;;;;18.42;6.47;;;;;;;13.17;65.64;101319.98;1747180;82;21157;-47
2020/12/31 06:23:04;;;;;;;21.95;5.97;;;;;;;13.17;65.53;101322.59;1742394;82;21181;-47
2020/12/31 06:25:47;;;;;;;24.90;6.25;;;;;;;13.18;65.48;101323.46;1740996;82;21561;-47
2020/12/31 06:28:19;;;;;;;16.85;5.97;;;;;;;13.17;65.40;101316.53;1742082;82;21160;-47
2020/12/31 06:30:50;;;;;;;22.95;5.97;;;;;;;13.17;65.41;101319.98;1734869;82;21140;-47
2020/12/31 06:33:44;;;;;;;23.18;7.22;;;;;;;13.19;65.53;101322.58;1743788;82;21557;-47
2020/12/31 06:36:12;;;;;;;20.68;6.22;;;;;;;13.23;65.43;101322.45;1736241;82;21180;-47
2020/12/31 06:38:47;;;;;;;21.73;6.85;;;;;;;13.28;65.32;101321.04;1743132;82;21282;-47
2020/12/31 06:41:41;;;;;;;15.95;6.17;;;;;;;13.29;65.17;101312.32;1727882;82;21145;-47
2020/12/31 06:44:12;;;;;;;17.37;6.20;;;;;;;13.28;65.13;101314.50;1741656;82;21616;-47
2020/12/31 06:46:48;;;;;;;19.25;6.28;;;;;;;13.30;64.98;101319.25;1733557;82;21521;-47
2020/12/31 06:49:17;;;;;;;24.98;6.40;;;;;;;13.32;65.08;101310.92;1744189;81;21302;-48
2020/12/31 06:51:46;;;;;;;17.42;6.92;;;;;;;13.33;65.14;101317.88;1731696;82;21279;-47
2020/12/31 06:54:29;;;;;;;19.52;6.87;;;;;;;13.35;64.97;101323.93;1744782;82;21310;-47
2020/12/31 06:56:57;;;;;;;16.82;6.47;;;;;;;13.37;64.82;101324.75;1740847;82;21173;-47
2020/12/31 06:59:40;;;;;;;17.55;5.58;;;;;;;13.35;64.63;101318.70;1731693;82;21307;-47
2020/12/31 07:02:22;;;;;;;23.77;6.95;;;;;;;13.35;64.73;101320.02;1731707;82;21321;-48
2020/12/31 07:04:50;;;;;;;20.90;6.47;;;;;;;13.43;64.64;101318.06;1738986;82;21577;-47
2020/12/31 07:07:24;;;;;;;21.25;6.35;;;;;;;13.43;64.64;101318.06;1733189;81;21128;-48
2020/12/31 07:09:59;;;;;;;18.85;6.65;;;;;;;13.45;64.50;101312.35;1741036;82;21104;-48
2020/12/31 07:12:41;;;;;;;18.05;6.55;;;;;;;13.48;64.37;101304.41;1736205;82;21180;-47
2020/12/31 07:15:09;;;;;;;12.98;5.47;;;;;;;13.49;64.24;101311.37;1729397;81;21157;-47
2020/12/31 07:17:43;;;;;;;15.95;5.95;;;;;;;13.48;64.01;101308.34;1722070;82;21339;-47
2020/12/31 07:20:15;;;;;;;16.67;6.65;;;;;;;13.46;64.41;101312.75;1673479;84;21214;-47
2020/12/31 07:22:51;;;;;;;20.15;6.20;;;;;;;13.50;64.43;101320.92;1804476;78;21262;-47
2020/12/31 07:25:19;;;;;;;20.25;6.47;;;;;;;13.46;64.35;101317.53;1775134;80;21548;-47
2020/12/31 07:27:48;;;;;;;29.25;7.42;;;;;;;13.46;64.36;101323.20;1774020;80;21140;-48
2020/12/31 07:30:21;;;;;;;20.35;7.50;;;;;;;13.46;64.42;101321.89;1771497;80;21144;-47
2020/12/31 07:32:59;;;;;;;18.35;6.50;;;;;;;13.45;64.47;101320.20;1772507;80;21131;-47
2020/12/31 07:35:38;;;;;;;15.85;6.08;;;;;;;13.45;64.56;101326.29;1771613;80;21136;-47
2020/12/31 07:38:14;;;;;;;21.77;6.20;;;;;;;13.48;64.44;101325.33;1771895;80;21687;-47
2020/12/31 07:40:50;;;;;;;21.77;7.22;;;;;;;13.46;64.65;101327.12;1772445;80;21147;-47
2020/12/31 07:43:23;;;;;;;25.92;7.80;;;;;;;13.46;64.74;101324.52;1771715;80;21136;-47
2020/12/31 07:45:54;;;;;;;22.67;7.25;;;;;;;13.47;64.65;101332.78;1772267;80;21171;-47
2020/12/31 07:48:23;;;;;;;19.90;6.25;;;;;;;13.48;64.51;101330.56;1771685;80;21131;-47
2020/12/31 07:51:02;;;;;;;19.45;6.92;;;;;;;13.48;64.63;101322.72;1770820;80;21644;-47
2020/12/31 07:53:30;;;;;;;25.32;8.90;;;;;;;13.47;64.73;101321.88;1776145;80;21562;-47
2020/12/31 07:55:58;;;;;;;18.92;6.00;;;;;;;13.47;64.98;101319.27;1761709;80;21108;-47
2020/12/31 07:58:32;;;;;;;25.48;7.05;;;;;;;13.51;65.02;101327.89;1774321;80;21152;-47
2020/12/31 08:01:05;;;;;;;18.52;6.15;;;;;;;13.54;64.97;101327.83;1775050;80;21164;-47
2020/12/31 08:03:34;;;;;;;18.15;6.47;;;;;;;13.55;64.98;101325.60;1775221;80;21632;-47
2020/12/31 08:06:04;;;;;;;13.90;5.72;;;;;;;13.57;65.01;101325.12;1774893;80;21596;-47
2020/12/31 08:08:34;;;;;;;22.77;6.30;;;;;;;13.62;64.98;101325.88;1779553;80;21191;-47
2020/12/31 08:11:09;;;;;;;22.87;6.62;;;;;;;13.68;64.82;101328.33;1773815;80;21544;-47
2020/12/31 08:13:37;;;;;;;25.40;6.75;;;;;;;13.74;64.62;101329.48;1770573;80;21139;-47
2020/12/31 08:16:07;;;;;;;20.30;6.58;;;;;;;13.77;64.59;101328.08;1774612;80;21119;-48
2020/12/31 08:18:35;;;;;;;27.50;6.28;;;;;;;13.82;64.47;101322.30;1775171;80;21536;-47
2020/12/31 08:21:07;;;;;;;22.90;8.05;;;;;;;13.85;64.47;101326.13;1709977;80;21156;-47
2020/12/31 08:23:41;;;;;;;22.87;8.20;;;;;;;13.87;64.24;101324.33;1769943;80;21160;-47
2020/12/31 08:26:09;;;;;;;21.90;7.08;;;;;;;13.90;64.12;101321.64;1748958;80;21167;-48
2020/12/31 08:28:37;;;;;;;19.48;7.72;;;;;;;13.92;64.15;101325.08;1767532;80;21160;-48
2020/12/31 08:31:11;;;;;;;22.02;7.40;;;;;;;13.95;64.13;101323.67;1772315;80;21159;-48
2020/12/31 08:33:39;;;;;;;21.70;6.53;;;;;;;13.98;64.00;101320.98;1769001;80;21156;-47
2020/12/31 08:36:08;;;;;;;16.82;6.95;;;;;;;14.00;63.84;101316.58;1769580;80;21282;-46
2020/12/31 08:38:38;;;;;;;20.68;7.05;;;;;;;14.05;63.81;101323.86;1769724;80;21203;-48
2020/12/31 08:41:08;;;;;;;25.02;7.15;;;;;;;14.09;63.71;101322.88;1768451;80;21109;-48
2020/12/31 08:43:38;;;;;;;18.45;6.92;;;;;;;14.15;63.48;101325.33;1766390;80;21136;-48
2020/12/31 08:46:08;;;;;;;21.93;6.37;;;;;;;14.22;63.25;101324.24;1732051;81;21171;-48
2020/12/31 08:48:36;;;;;;;22.27;8.78;;;;;;;14.23;63.14;101318.13;1736215;82;21147;-47
2020/12/31 08:51:13;;;;;;;23.10;6.42;;;;;;;14.24;63.21;101317.20;1739848;82;21183;-47
2020/12/31 08:53:54;;;;;;;19.65;5.97;;;;;;;14.27;63.19;101313.65;1734225;82;21203;-47
2020/12/31 08:56:26;;;;;;;18.75;7.20;;;;;;;14.27;63.02;101305.35;1741162;82;21120;-47
2020/12/31 08:59:16;;;;;;;17.85;6.28;;;;;;;14.27;63.18;101311.89;1736487;82;21147;-47
2020/12/31 09:01:46;;;;;;;17.87;5.90;;;;;;;14.27;63.23;101305.35;1736176;82;21297;-46
2020/12/31 09:04:20;;;;;;;19.80;6.33;;;;;;;14.19;63.63;101306.02;1736846;82;21147;-46
2020/12/31 09:06:52;;;;;;;17.30;5.90;;;;;;;14.25;63.42;101301.92;1735851;82;21183;-47
2020/12/31 09:09:26;;;;;;;20.77;6.37;;;;;;;14.26;63.47;101302.31;1736579;82;21136;-46
2020/12/31 09:12:08;;;;;;;24.30;6.50;;;;;;;14.28;63.39;101307.09;1735466;82;21195;-47
2020/12/31 09:14:38;;;;;;;21.30;6.12;;;;;;;14.30;63.33;101305.28;1726206;82;21171;-47
2020/12/31 09:17:25;;;;;;;15.55;6.55;;;;;;;14.33;63.18;101306.96;1722005;82;21116;-49
2020/12/31 09:19:56;;;;;;;19.27;5.85;;;;;;;14.35;62.95;101304.72;1729999;82;21128;-46
2020/12/31 09:22:26;;;;;;;21.82;6.47;;;;;;;14.35;62.83;101306.03;1731050;82;21592;-46
2020/12/31 09:24:54;;;;;;;19.42;6.75;;;;;;;14.35;62.76;101302.09;1730887;82;21584;-46
2020/12/31 09:27:25;;;;;;;23.62;7.47;;;;;;;14.36;62.75;101303.80;1730760;82;21262;-47
2020/12/31 09:30:01;;;;;;;26.25;8.58;;;;;;;14.43;62.81;101297.50;1792202;79;28156;-47
2020/12/31 09:32:29;;;;;;;16.87;6.95;;;;;;;14.43;62.70;101304.05;1772285;80;21565;-47
2020/12/31 09:35:02;;;;;;;20.17;6.72;;;;;;;14.50;62.51;101299.05;1766426;80;21171;-46
2020/12/31 09:37:30;;;;;;;20.68;6.87;;;;;;;14.51;62.40;101297.27;1776053;80;21139;-47
2020/12/31 09:40:00;;;;;;;21.48;7.40;;;;;;;14.50;62.41;101293.81;1767755;80;21156;-47
2020/12/31 09:42:29;;;;;;;19.60;6.03;;;;;;;14.51;62.43;101296.82;1774934;80;21572;-46
2020/12/31 09:44:57;;;;;;;22.32;6.37;;;;;;;14.50;62.34;101291.20;1774538;80;21112;-46
2020/12/31 09:47:25;;;;;;;20.77;6.08;;;;;;;14.50;62.39;101287.27;1778915;80;21278;-46
2020/12/31 09:49:53;;;;;;;20.17;7.50;;;;;;;14.47;62.39;101283.86;1768751;80;21298;-48
2020/12/31 09:52:21;;;;;;;19.57;6.30;;;;;;;14.43;62.50;101288.33;1773378;80;21299;-47
2020/12/31 09:54:49;;;;;;;21.50;6.05;;;;;;;14.41;62.49;101287.52;1765115;80;21306;-47
2020/12/31 09:57:18;;;;;;;17.98;7.03;;;;;;;14.43;62.45;101284.41;1769160;80;21548;-46
2020/12/31 09:59:46;;;;;;;23.15;7.05;;;;;;;14.43;62.33;101276.55;1778040;80;21097;-47
2020/12/31 10:02:14;;;;;;;22.42;6.85;;;;;;;14.46;62.37;101278.23;1765688;80;21152;-47
2020/12/31 10:04:43;;;;;;;14.00;6.50;;;;;;;14.45;62.27;101272.13;1777943;79;21171;-47
2020/12/31 10:07:11;;;;;;;20.52;6.70;;;;;;;14.45;62.31;101272.13;1769366;80;21136;-47
2020/12/31 10:09:39;;;;;;;18.98;6.75;;;;;;;14.43;62.34;101267.39;1772769;80;21293;-46
2020/12/31 10:12:07;;;;;;;20.62;6.65;;;;;;;14.44;62.50;101267.81;1774382;80;21124;-47
2020/12/31 10:14:36;;;;;;;22.20;7.12;;;;;;;14.46;62.49;101264.70;1768042;80;21148;-46
2020/12/31 10:17:04;;;;;;;15.20;6.17;;;;;;;14.46;62.53;101262.52;1768095;80;21156;-46
2020/12/31 10:19:33;;;;;;;20.75;6.83;;;;;;;14.39;62.74;101261.84;1770774;80;21143;-47
2020/12/31 10:22:01;;;;;;;18.00;6.33;;;;;;;14.17;63.58;101254.17;1765765;80;21140;-47
2020/12/31 10:24:29;;;;;;;17.87;6.25;;;;;;;14.38;63.12;101248.36;1772574;80;21172;-46
2020/12/31 10:26:58;;;;;;;19.73;6.15;;;;;;;14.17;63.70;101247.63;1774525;80;21529;-47
2020/12/31 10:29:26;;;;;;;20.65;6.60;;;;;;;14.40;63.11;101242.63;1765136;80;21140;-47
2020/12/31 10:31:54;;;;;;;22.30;7.17;;;;;;;14.47;62.65;101245.45;1762895;80;21136;-47
2020/12/31 10:34:23;;;;;;;16.77;6.60;;;;;;;14.48;62.39;101245.00;1768918;80;21632;-47
2020/12/31 10:36:54;;;;;;;14.10;6.50;;;;;;;14.47;62.38;101246.75;1767118;80;21175;-46
2020/12/31 10:39:26;;;;;;;17.52;5.87;;;;;;;14.44;62.36;101241.62;1767713;80;21140;-47
2020/12/31 10:41:54;;;;;;;20.15;6.37;;;;;;;14.44;62.41;101240.31;1766929;80;21132;-48
2020/12/31 10:44:22;;;;;;;18.67;6.78;;;;;;;14.44;62.47;101239.01;1769119;80;21155;-48
2020/12/31 10:46:51;;;;;;;22.82;7.47;;;;;;;14.46;62.46;101242.44;1763778;80;21143;-47
2020/12/31 10:49:19;;;;;;;20.55;7.65;;;;;;;14.47;62.42;101240.66;1771817;80;21101;-47
2020/12/31 10:51:49;;;;;;;18.02;6.03;;;;;;;14.46;62.46;101231.97;1760238;80;21136;-47
2020/12/31 10:54:17;;;;;;;17.15;6.78;;;;;;;14.47;62.48;101224.50;1773980;80;21265;-47
2020/12/31 10:56:47;;;;;;;18.10;6.90;;;;;;;14.49;62.38;101220.52;1773257;80;21281;-48
2020/12/31 10:59:16;;;;;;;14.70;5.37;;;;;;;14.49;62.47;101216.14;1762619;80;21140;-48
2020/12/31 11:01:48;;;;;;;24.20;7.95;;;;;;;14.50;62.46;101207.40;1775611;80;21325;-47
2020/12/31 11:04:16;;;;;;;24.87;7.33;;;;;;;14.54;62.44;101213.39;1770612;80;21104;-47
2020/12/31 11:06:45;;;;;;;19.20;7.58;;;;;;;14.63;62.22;101213.95;1767583;80;21301;-47
2020/12/31 11:09:13;;;;;;;17.82;7.28;;;;;;;14.69;61.93;101212.45;1767966;80;21176;-47
2020/12/31 11:11:41;;;;;;;23.80;6.97;;;;;;;14.75;61.60;101207.94;1773274;80;21136;-47
2020/12/31 11:14:09;;;;;;;19.60;6.00;;;;;;;14.77;61.31;101202.20;1762582;80;21278;-47
2020/12/31 11:16:38;;;;;;;19.42;6.42;;;;;;;14.78;61.08;101201.27;1768257;80;21274;-48
2020/12/31 11:19:06;;;;;;;17.80;5.80;;;;;;;14.77;60.91;101199.58;1767501;80;21187;-47
2020/12/31 11:21:34;;;;;;;15.75;5.60;;;;;;;14.75;60.88;101195.70;1763365;80;21135;-47
2020/12/31 11:24:02;;;;;;;15.63;6.22;;;;;;;14.76;60.78;101197.41;1770268;80;21272;-48
2020/12/31 11:26:31;;;;;;;18.90;6.12;;;;;;;14.77;60.82;101198.27;1763894;80;21180;-47
2020/12/31 11:28:59;;;;;;;22.98;7.47;;;;;;;14.79;60.66;101191.22;1764162;80;21573;-47
2020/12/31 11:31:28;;;;;;;18.07;6.65;;;;;;;14.76;60.77;101186.05;1758330;81;21545;-47